Time;durP1;ratioP1;P1;durP2;ratioP2;P2;SDS_P1;SDS_P2;PMS_P1;PMS_P2;Temp;Humidity;BMP_temperature;BMP_pressure;BME280_temperature;BME280_humidity;BME280_pressure;Samples;Min_cycle;Max_cycle;Signal;HPM_P1;HPM_P2
2023/02/07 00:00:43;;;;;;;0.90;0.40;;;27.50;43.10;;;;;;5091190;28;20201;-52
2023/02/07 00:03:14;;;;;;;1.15;0.50;;;27.50;43.10;;;;;;5091271;28;20200;-52
2023/02/07 00:05:45;;;;;;;0.50;0.40;;;27.50;43.00;;;;;;5091749;28;20233;-54
2023/02/07 00:08:16;;;;;;;1.60;0.68;;;27.50;42.90;;;;;;5091422;28;20248;-54
2023/02/07 00:10:46;;;;;;;0.50;0.40;;;27.50;42.90;;;;;;5095002;28;20650;-54
2023/02/07 00:13:19;;;;;;;0.80;0.47;;;27.50;42.80;;;;;;5095384;28;20561;-54
2023/02/07 00:15:53;;;;;;;1.92;0.50;;;27.60;42.80;;;;;;5094954;28;20725;-55
2023/02/07 00:18:24;;;;;;;1.35;0.60;;;27.60;42.80;;;;;;5095019;28;20225;-55
2023/02/07 00:21:01;;;;;;;0.90;0.50;;;27.70;42.80;;;;;;5095320;28;20209;-49
2023/02/07 00:23:32;;;;;;;1.63;0.55;;;27.60;42.80;;;;;;5095315;28;20679;-50
2023/02/07 00:26:03;;;;;;;1.10;0.50;;;27.70;42.90;;;;;;5095320;28;20201;-51
2023/02/07 00:28:36;;;;;;;0.90;0.47;;;27.70;42.80;;;;;;5094641;28;20226;-54
2023/02/07 00:31:09;;;;;;;1.17;0.60;;;27.70;42.80;;;;;;5095025;28;20288;-54
2023/02/07 00:33:40;;;;;;;1.08;0.55;;;27.80;42.90;;;;;;5094784;28;20688;-53
2023/02/07 00:36:13;;;;;;;1.30;0.65;;;27.80;42.80;;;;;;5094403;28;20190;-51
2023/02/07 00:38:44;;;;;;;0.90;0.50;;;27.80;42.80;;;;;;5077859;28;20230;-53
2023/02/07 00:41:17;;;;;;;0.95;0.50;;;27.80;42.60;;;;;;5074411;28;20209;-53
2023/02/07 00:43:50;;;;;;;1.05;0.52;;;27.80;42.50;;;;;;5074267;28;20269;-53
2023/02/07 00:46:21;;;;;;;2.40;0.50;;;27.90;42.50;;;;;;5073941;28;20199;-50
2023/02/07 00:48:51;;;;;;;1.65;0.38;;;27.80;42.40;;;;;;5073893;28;20225;-51
2023/02/07 00:51:24;;;;;;;1.38;0.70;;;27.90;42.50;;;;;;5074260;28;20199;-52
2023/02/07 00:53:55;;;;;;;0.60;0.30;;;27.90;42.40;;;;;;5074410;28;20225;-51
2023/02/07 00:56:27;;;;;;;0.60;0.47;;;27.90;42.40;;;;;;5074208;28;20557;-53
2023/02/07 00:58:59;;;;;;;0.77;0.40;;;28.00;42.40;;;;;;5094054;28;20291;-50
2023/02/07 01:01:30;;;;;;;1.00;0.50;;;28.00;42.40;;;;;;5094288;28;20206;-51
2023/02/07 01:04:01;;;;;;;1.00;0.50;;;28.00;42.40;;;;;;5094626;28;20281;-50
2023/02/07 01:06:34;;;;;;;0.50;0.40;;;28.00;42.50;;;;;;5094055;28;20221;-53
2023/02/07 01:09:06;;;;;;;1.30;0.60;;;28.10;42.60;;;;;;5073811;28;20254;-53
2023/02/07 01:11:37;;;;;;;1.27;0.50;;;28.10;42.50;;;;;;5073807;28;20198;-53
2023/02/07 01:14:10;;;;;;;1.15;0.43;;;28.20;42.60;;;;;;5073998;28;20190;-53
2023/02/07 01:16:40;;;;;;;1.52;0.70;;;28.10;42.50;;;;;;5073632;28;20215;-53
2023/02/07 01:19:12;;;;;;;2.28;0.82;;;28.20;42.60;;;;;;5073416;28;20218;-50
2023/02/07 01:21:43;;;;;;;0.85;0.40;;;28.20;42.50;;;;;;5072808;28;20195;-52
2023/02/07 01:24:13;;;;;;;0.60;0.40;;;28.20;42.40;;;;;;5073906;28;20278;-52
2023/02/07 01:26:44;;;;;;;0.68;0.50;;;28.20;42.90;;;;;;5073985;28;20222;-51
2023/02/07 01:29:18;;;;;;;1.42;0.40;;;28.30;42.30;;;;;;5073755;28;20604;-50
2023/02/07 01:31:48;;;;;;;1.33;0.65;;;28.30;42.20;;;;;;5078453;28;20202;-51
2023/02/07 01:34:19;;;;;;;1.00;0.57;;;28.30;42.20;;;;;;5073357;28;20561;-51
2023/02/07 01:36:50;;;;;;;1.08;0.68;;;28.40;42.10;;;;;;5073823;28;20206;-53
2023/02/07 01:39:21;;;;;;;1.30;0.50;;;28.40;42.10;;;;;;5093215;28;20217;-52
2023/02/07 01:41:51;;;;;;;0.57;0.40;;;28.40;42.00;;;;;;5093351;28;20195;-52
2023/02/07 01:45:05;;;;;;;1.65;0.63;;;28.40;41.90;;;;;;5093574;28;20227;-51
2023/02/07 01:47:38;;;;;;;0.55;0.40;;;28.50;42.00;;;;;;5093014;28;20597;-53
2023/02/07 01:50:09;;;;;;;0.90;0.50;;;28.50;42.00;;;;;;5093009;28;20222;-53
2023/02/07 01:52:42;;;;;;;0.95;0.30;;;28.50;42.00;;;;;;5093212;28;20388;-54
2023/02/07 01:55:17;;;;;;;1.00;0.60;;;28.50;41.90;;;;;;5092972;28;20676;-52
2023/02/07 01:57:48;;;;;;;0.90;0.47;;;28.60;41.90;;;;;;5092974;28;20212;-50
2023/02/07 02:00:22;;;;;;;0.95;0.50;;;28.60;41.90;;;;;;5092862;28;20214;-55
2023/02/07 02:02:52;;;;;;;1.15;0.52;;;28.60;41.90;;;;;;5092671;28;20208;-52
2023/02/07 02:05:25;;;;;;;2.28;0.50;;;28.60;41.70;;;;;;5093019;28;20198;-51
2023/02/07 02:07:55;;;;;;;1.48;0.60;;;28.60;41.50;;;;;;5093253;28;20267;-52
2023/02/07 02:10:32;;;;;;;0.90;0.40;;;28.70;41.30;;;;;;5093175;28;20202;-53
2023/02/07 02:13:16;;;;;;;1.95;0.50;;;28.70;41.10;;;;;;5093137;28;20193;-51
2023/02/07 02:16:00;;;;;;;1.30;0.52;;;28.70;41.00;;;;;;5093329;28;20198;-54
2023/02/07 02:18:57;;;;;;;1.95;0.50;;;28.70;40.90;;;;;;5093060;28;20580;-51
2023/02/07 02:22:06;;;;;;;0.95;0.38;;;28.70;40.70;;;;;;5092739;28;20201;-51
2023/02/07 02:25:08;;;;;;;0.90;0.47;;;28.80;40.70;;;;;;5045926;28;20564;-54
2023/02/07 02:27:59;;;;;;;1.67;0.40;;;28.80;40.60;;;;;;5092329;28;20716;-51
2023/02/07 02:30:58;;;;;;;0.50;0.30;;;28.80;40.60;;;;;;5092595;28;20190;-51
2023/02/07 02:33:44;;;;;;;0.95;0.30;;;28.90;40.60;;;;;;5092305;28;20285;-53
2023/02/07 02:36:23;;;;;;;1.08;0.50;;;28.90;40.60;;;;;;5092305;28;20200;-53
2023/02/07 02:39:01;;;;;;;2.55;0.52;;;28.90;40.60;;;;;;5092032;28;20232;-50
2023/02/07 02:41:39;;;;;;;1.83;0.50;;;28.90;40.60;;;;;;5091867;28;20718;-53
2023/02/07 02:44:14;;;;;;;0.75;0.35;;;28.90;40.50;;;;;;5091916;28;20202;-54
2023/02/07 02:46:46;;;;;;;0.95;0.43;;;29.00;40.50;;;;;;5091579;28;20193;-51
2023/02/07 02:49:19;;;;;;;1.15;0.40;;;29.00;40.50;;;;;;5092009;28;20573;-55
2023/02/07 02:51:53;;;;;;;0.70;0.40;;;29.00;40.10;;;;;;5092439;28;20198;-52
2023/02/07 02:54:32;;;;;;;0.70;0.43;;;29.00;39.90;;;;;;5092442;28;20194;-53
2023/02/07 02:57:37;;;;;;;1.27;0.50;;;29.00;39.80;;;;;;5091785;28;20549;-54
2023/02/07 03:00:37;;;;;;;0.73;0.43;;;29.10;39.70;;;;;;5072711;28;20214;-52
2023/02/07 03:03:36;;;;;;;0.75;0.45;;;29.10;39.60;;;;;;5091524;28;20629;-51
2023/02/07 03:06:21;;;;;;;0.82;0.40;;;29.20;39.50;;;;;;5092311;28;20202;-51
2023/02/07 03:08:59;;;;;;;0.68;0.40;;;29.20;39.50;;;;;;5074088;28;20717;-51
2023/02/07 03:11:38;;;;;;;0.82;0.40;;;29.20;39.40;;;;;;5071769;28;20217;-52
2023/02/07 03:14:17;;;;;;;1.48;0.43;;;29.30;39.40;;;;;;5071763;28;20266;-54
2023/02/07 03:16:55;;;;;;;0.98;0.40;;;29.30;39.30;;;;;;5071770;28;20573;-51
2023/02/07 03:19:30;;;;;;;1.58;0.55;;;29.30;39.40;;;;;;5071911;28;20211;-53
2023/02/07 03:22:09;;;;;;;1.08;0.32;;;29.30;39.40;;;;;;5071735;28;20202;-52
2023/02/07 03:24:43;;;;;;;1.33;0.70;;;29.30;39.20;;;;;;5071833;28;20228;-52
2023/02/07 03:27:16;;;;;;;1.65;0.40;;;29.40;39.30;;;;;;5071981;28;20198;-50
2023/02/07 03:29:50;;;;;;;5.05;0.40;;;29.40;39.20;;;;;;5071273;28;20230;-51
2023/02/07 03:32:24;;;;;;;1.17;0.30;;;29.50;39.30;;;;;;5070995;28;20194;-53
2023/02/07 03:34:58;;;;;;;0.90;0.60;;;29.50;39.20;;;;;;5071212;28;20677;-49
2023/02/07 03:37:36;;;;;;;1.40;0.50;;;29.50;38.90;;;;;;5080013;28;20201;-51
2023/02/07 03:40:08;;;;;;;0.90;0.45;;;29.50;38.80;;;;;;5086461;28;20213;-52
2023/02/07 03:42:42;;;;;;;1.27;0.43;;;29.50;38.80;;;;;;5071405;28;20215;-54
2023/02/07 03:45:17;;;;;;;2.40;0.60;;;29.60;38.80;;;;;;5074251;28;20766;-54
2023/02/07 03:47:48;;;;;;;2.47;0.40;;;29.60;38.60;;;;;;5075593;28;20697;-54
2023/02/07 03:50:19;;;;;;;0.80;0.40;;;29.60;38.50;;;;;;5075415;28;20215;-51
2023/02/07 03:52:51;;;;;;;2.05;0.55;;;29.70;38.50;;;;;;5075103;28;20199;-49
2023/02/07 03:55:22;;;;;;;1.70;0.40;;;29.70;38.40;;;;;;5074862;28;20194;-50
2023/02/07 03:57:53;;;;;;;1.33;0.40;;;29.70;38.30;;;;;;5074950;28;20213;-51
2023/02/07 04:00:24;;;;;;;1.48;0.45;;;29.80;38.20;;;;;;5075035;28;20190;-53
2023/02/07 04:02:54;;;;;;;2.70;0.70;;;29.80;38.10;;;;;;5074904;28;20736;-51
2023/02/07 04:05:25;;;;;;;0.65;0.50;;;29.80;38.10;;;;;;5075135;28;20229;-51
2023/02/07 04:07:58;;;;;;;0.85;0.40;;;29.80;38.20;;;;;;5085141;28;20697;-52
2023/02/07 04:10:28;;;;;;;2.05;0.50;;;29.90;38.10;;;;;;5095288;28;20571;-51
2023/02/07 04:13:00;;;;;;;1.00;0.45;;;29.90;38.10;;;;;;5095319;28;20209;-54
2023/02/07 04:15:31;;;;;;;1.65;0.50;;;30.00;38.20;;;;;;5095173;28;20735;-54
2023/02/07 04:18:02;;;;;;;0.43;0.40;;;30.00;38.00;;;;;;5095426;28;20280;-51
2023/02/07 04:20:32;;;;;;;0.63;0.30;;;30.00;38.00;;;;;;5095216;28;20538;-53
2023/02/07 04:23:05;;;;;;;1.92;0.60;;;30.00;38.60;;;;;;5095299;28;20205;-55
2023/02/07 04:25:36;;;;;;;2.35;0.65;;;30.00;37.80;;;;;;5095757;28;20202;-50
2023/02/07 04:28:06;;;;;;;1.33;0.52;;;30.10;37.80;;;;;;5094881;28;20244;-52
2023/02/07 04:30:37;;;;;;;1.42;0.40;;;30.10;37.60;;;;;;5095125;28;20198;-55
2023/02/07 04:33:09;;;;;;;0.98;0.40;;;30.10;37.60;;;;;;5094818;28;20653;-54
2023/02/07 04:35:39;;;;;;;1.10;0.40;;;30.10;37.50;;;;;;5094738;28;20198;-53
2023/02/07 04:38:12;;;;;;;1.83;0.30;;;30.20;37.60;;;;;;5094470;28;20213;-53
2023/02/07 04:40:43;;;;;;;0.80;0.52;;;30.20;37.30;;;;;;5094226;28;20201;-55
2023/02/07 04:43:13;;;;;;;2.53;0.52;;;30.20;37.20;;;;;;5094243;28;20190;-52
2023/02/07 04:45:44;;;;;;;2.45;0.40;;;30.20;37.10;;;;;;5094730;28;20213;-54
2023/02/07 04:48:15;;;;;;;2.42;0.50;;;30.30;37.00;;;;;;5094555;28;20218;-55
2023/02/07 04:50:45;;;;;;;1.80;0.40;;;30.30;37.00;;;;;;5094201;28;20197;-55
2023/02/07 04:53:18;;;;;;;1.88;0.50;;;30.30;36.80;;;;;;5094100;28;20288;-55
2023/02/07 04:55:51;;;;;;;0.73;0.43;;;30.30;36.80;;;;;;5094188;28;20190;-56
2023/02/07 04:58:22;;;;;;;1.60;0.40;;;30.30;36.80;;;;;;5094138;28;20221;-56
2023/02/07 05:00:53;;;;;;;0.77;0.50;;;30.30;36.70;;;;;;5093878;28;20194;-56
2023/02/07 05:03:24;;;;;;;0.30;0.30;;;30.40;36.80;;;;;;5094063;28;20207;-55
2023/02/07 05:05:56;;;;;;;1.70;0.55;;;30.40;36.80;;;;;;5093943;28;20194;-55
2023/02/07 05:08:28;;;;;;;1.58;0.60;;;30.40;37.00;;;;;;5079561;28;20242;-56
2023/02/07 05:10:59;;;;;;;0.82;0.40;;;30.40;36.90;;;;;;5073747;28;20548;-55
2023/02/07 05:13:30;;;;;;;1.23;0.50;;;30.40;37.40;;;;;;5073859;28;20677;-54
2023/02/07 05:16:03;;;;;;;2.53;0.57;;;30.40;36.40;;;;;;5073674;28;20198;-54
2023/02/07 05:18:34;;;;;;;1.10;0.47;;;30.40;36.20;;;;;;5073714;28;20226;-54
2023/02/07 05:21:05;;;;;;;1.90;0.50;;;30.40;36.10;;;;;;5073623;28;20206;-51
2023/02/07 05:23:37;;;;;;;2.75;0.73;;;30.40;35.80;;;;;;5073548;28;20190;-52
2023/02/07 05:26:08;;;;;;;0.93;0.60;;;30.40;35.50;;;;;;5073956;28;20346;-53
2023/02/07 05:28:39;;;;;;;2.05;0.52;;;30.40;35.40;;;;;;5073377;28;20234;-55
2023/02/07 05:31:09;;;;;;;2.15;0.57;;;30.40;35.60;;;;;;5073252;28;20213;-53
2023/02/07 05:33:39;;;;;;;1.20;0.50;;;30.40;35.50;;;;;;5073086;28;20191;-55
2023/02/07 05:36:10;;;;;;;0.95;0.40;;;30.40;35.50;;;;;;5073253;28;20251;-52
2023/02/07 05:38:42;;;;;;;0.93;0.40;;;30.40;35.60;;;;;;5074096;28;20305;-54
2023/02/07 05:41:13;;;;;;;0.60;0.38;;;30.40;35.60;;;;;;5073415;28;20206;-54
2023/02/07 05:43:44;;;;;;;0.60;0.30;;;30.40;35.70;;;;;;5072888;28;20659;-54
2023/02/07 05:46:14;;;;;;;1.00;0.47;;;30.40;35.80;;;;;;5073236;28;20563;-54
2023/02/07 05:48:45;;;;;;;2.80;0.52;;;30.40;36.10;;;;;;5075374;28;20221;-53
2023/02/07 05:51:16;;;;;;;2.13;0.45;;;30.40;36.20;;;;;;5072802;28;20206;-55
2023/02/07 05:53:48;;;;;;;1.05;0.50;;;30.40;36.40;;;;;;5073082;28;20200;-53
2023/02/07 05:56:19;;;;;;;1.17;0.45;;;30.40;36.40;;;;;;5072783;28;20673;-52
2023/02/07 05:58:50;;;;;;;0.93;0.52;;;30.40;36.40;;;;;;5072604;28;20218;-53
2023/02/07 06:01:20;;;;;;;1.02;0.43;;;30.40;36.60;;;;;;5072245;28;20206;-51
2023/02/07 06:03:51;;;;;;;1.27;0.50;;;30.40;36.60;;;;;;5072268;28;20203;-52
2023/02/07 06:06:22;;;;;;;0.95;0.28;;;30.40;36.40;;;;;;5072493;28;20199;-52
2023/02/07 06:08:54;;;;;;;1.25;0.50;;;30.40;36.40;;;;;;5090824;28;20241;-54
2023/02/07 06:11:25;;;;;;;0.63;0.40;;;30.40;36.30;;;;;;5093276;28;20198;-51
2023/02/07 06:13:56;;;;;;;0.47;0.32;;;30.40;36.40;;;;;;5092953;28;20468;-51
2023/02/07 06:16:26;;;;;;;0.60;0.40;;;30.40;36.40;;;;;;5092814;28;20197;-53
2023/02/07 06:18:57;;;;;;;2.50;1.38;;;30.40;36.50;;;;;;5092440;28;20214;-51
2023/02/07 06:21:28;;;;;;;1.17;0.80;;;30.40;36.50;;;;;;5092773;28;20226;-52
2023/02/07 06:24:00;;;;;;;2.47;1.30;;;30.40;36.60;;;;;;5092503;28;20571;-52
2023/02/07 06:26:31;;;;;;;3.45;2.25;;;30.40;36.60;;;;;;5092758;28;20198;-48
2023/02/07 06:29:02;;;;;;;7.25;4.28;;;30.40;36.60;;;;;;5092545;28;20740;-51
2023/02/07 06:31:33;;;;;;;7.25;5.03;;;30.40;36.50;;;;;;5092756;28;20200;-54
2023/02/07 06:34:03;;;;;;;12.00;6.57;;;30.50;36.70;;;;;;5092681;28;20542;-52
2023/02/07 06:36:34;;;;;;;12.75;8.88;;;30.40;36.60;;;;;;5092994;28;20209;-52
2023/02/07 06:39:07;;;;;;;13.43;8.98;;;30.40;36.50;;;;;;5091453;28;20228;-52
2023/02/07 06:41:37;;;;;;;16.33;9.98;;;30.50;37.10;;;;;;5090955;28;20186;-54
2023/02/07 06:44:08;;;;;;;12.48;9.10;;;30.50;36.40;;;;;;5091893;28;20201;-52
2023/02/07 06:46:39;;;;;;;14.65;9.95;;;30.40;36.40;;;;;;5092276;28;20280;-50
2023/02/07 06:49:10;;;;;;;14.25;9.70;;;30.40;36.20;;;;;;5092331;28;20241;-51
2023/02/07 06:51:40;;;;;;;15.95;9.85;;;30.50;36.20;;;;;;5092157;28;20205;-53
2023/02/07 06:54:13;;;;;;;15.45;9.88;;;30.40;36.00;;;;;;5091908;28;20194;-53
2023/02/07 06:56:44;;;;;;;15.95;10.73;;;30.40;35.90;;;;;;5091844;28;20197;-51
2023/02/07 06:59:14;;;;;;;15.07;9.68;;;30.40;35.90;;;;;;5091735;28;20213;-48
2023/02/07 07:01:45;;;;;;;17.38;9.93;;;30.40;35.90;;;;;;5091913;28;20206;-55
2023/02/07 07:04:17;;;;;;;14.45;9.50;;;30.40;35.80;;;;;;5092060;28;20277;-52
2023/02/07 07:06:48;;;;;;;12.18;8.98;;;30.40;35.80;;;;;;5091052;28;20240;-54
2023/02/07 07:09:21;;;;;;;13.07;9.50;;;30.40;36.00;;;;;;5071238;28;20230;-54
2023/02/07 07:11:51;;;;;;;13.57;8.68;;;30.40;35.90;;;;;;5071200;28;20566;-54
2023/02/07 07:14:22;;;;;;;14.45;8.65;;;30.40;36.20;;;;;;5071445;28;20198;-53
2023/02/07 07:16:54;;;;;;;13.48;8.93;;;30.40;36.40;;;;;;5071342;28;20195;-54
2023/02/07 07:19:24;;;;;;;12.70;8.80;;;30.40;36.30;;;;;;5070491;28;20214;-54
2023/02/07 07:21:56;;;;;;;11.13;7.30;;;30.40;36.20;;;;;;5071669;28;20278;-54
2023/02/07 07:24:28;;;;;;;11.93;7.65;;;30.40;36.10;;;;;;5071507;28;20609;-52
2023/02/07 07:26:59;;;;;;;11.80;8.05;;;30.40;36.10;;;;;;5071801;28;20195;-56
2023/02/07 07:29:30;;;;;;;8.93;7.32;;;30.30;36.00;;;;;;5071333;28;20234;-53
2023/02/07 07:32:00;;;;;;;10.43;6.90;;;30.30;36.60;;;;;;5072027;28;20207;-54
2023/02/07 07:34:31;;;;;;;11.40;6.88;;;30.30;35.90;;;;;;5071511;28;20669;-49
2023/02/07 07:37:03;;;;;;;11.55;6.75;;;30.30;36.00;;;;;;5071841;28;20218;-53
2023/02/07 07:39:36;;;;;;;9.50;7.00;;;30.30;36.10;;;;;;5071344;28;20214;-51
2023/02/07 07:42:06;;;;;;;9.30;6.25;;;30.30;36.10;;;;;;5070898;28;20559;-53
2023/02/07 07:44:37;;;;;;;8.73;6.18;;;30.20;36.10;;;;;;5071855;28;20191;-53
2023/02/07 07:47:08;;;;;;;8.35;6.00;;;30.20;36.10;;;;;;5071575;28;20591;-52
2023/02/07 07:49:38;;;;;;;10.35;5.50;;;30.20;36.70;;;;;;5071117;28;20227;-50
2023/02/07 07:52:09;;;;;;;7.45;5.50;;;30.20;36.10;;;;;;5071779;28;20194;-49
2023/02/07 07:54:42;;;;;;;6.82;4.47;;;30.20;36.10;;;;;;5071422;28;20203;-51
2023/02/07 07:57:13;;;;;;;8.07;4.85;;;30.20;36.10;;;;;;5071031;28;20197;-53
2023/02/07 07:59:43;;;;;;;6.60;4.57;;;30.10;36.10;;;;;;5071467;28;20221;-51
2023/02/07 08:02:15;;;;;;;6.68;4.53;;;30.10;36.20;;;;;;5071393;28;20202;-52
2023/02/07 08:04:46;;;;;;;6.47;4.20;;;30.10;36.10;;;;;;5071659;28;20195;-50
2023/02/07 08:07:17;;;;;;;4.95;3.88;;;30.10;36.10;;;;;;5071008;28;20191;-55
2023/02/07 08:09:49;;;;;;;7.25;4.05;;;30.00;36.10;;;;;;5070589;28;20230;-56
2023/02/07 08:12:20;;;;;;;5.53;3.40;;;30.00;36.20;;;;;;5070637;28;20199;-50
2023/02/07 08:14:50;;;;;;;4.05;3.42;;;30.00;36.30;;;;;;5070598;28;20206;-50
2023/02/07 08:17:21;;;;;;;4.00;1.20;;;29.90;36.40;;;;;;5071063;28;20589;-54
2023/02/07 08:19:52;;;;;;;1.52;0.60;;;29.90;35.40;;;;;;5071071;28;20218;-50
2023/02/07 08:22:22;;;;;;;0.65;0.55;;;29.80;34.50;;;;;;5071314;28;20191;-51
2023/02/07 08:24:55;;;;;;;1.42;0.85;;;29.70;34.40;;;;;;5071145;28;20206;-50
2023/02/07 08:27:26;;;;;;;1.50;0.75;;;29.50;34.50;;;;;;5047069;23;20750;-45
2023/02/07 08:29:56;;;;;;;1.95;0.90;;;29.50;34.80;;;;;;5012495;28;20228;-45
2023/02/07 08:32:28;;;;;;;1.45;0.85;;;29.40;35.00;;;;;;5015251;28;20287;-46
2023/02/07 08:34:59;;;;;;;1.92;1.05;;;29.40;35.30;;;;;;5015267;28;20254;-45
2023/02/07 08:37:30;;;;;;;1.73;0.90;;;29.30;35.30;;;;;;5021651;28;20200;-46
2023/02/07 08:40:03;;;;;;;2.30;1.00;;;29.30;35.50;;;;;;5034516;28;20219;-45
2023/02/07 08:42:34;;;;;;;1.83;1.10;;;29.30;35.60;;;;;;5032266;28;20200;-46
2023/02/07 08:45:05;;;;;;;1.98;1.05;;;29.20;35.60;;;;;;5015376;28;20197;-47
2023/02/07 08:47:36;;;;;;;2.63;0.90;;;29.20;35.80;;;;;;5015037;28;20228;-47
2023/02/07 08:50:07;;;;;;;1.48;1.00;;;29.20;35.80;;;;;;5014680;28;20576;-44
2023/02/07 08:52:38;;;;;;;2.05;1.00;;;29.20;35.90;;;;;;5014502;28;20204;-48
2023/02/07 08:55:11;;;;;;;1.70;0.77;;;29.20;35.70;;;;;;5014219;28;20204;-46
2023/02/07 08:57:42;;;;;;;3.13;0.75;;;29.10;35.50;;;;;;5014464;28;20203;-48
2023/02/07 09:00:13;;;;;;;4.32;1.00;;;29.10;35.60;;;;;;5014556;28;20220;-49
2023/02/07 09:02:44;;;;;;;1.20;0.70;;;29.10;35.70;;;;;;5014205;28;20201;-46
2023/02/07 09:05:15;;;;;;;2.05;0.90;;;29.00;35.70;;;;;;5013975;28;20576;-47
2023/02/07 09:07:46;;;;;;;1.35;0.75;;;29.00;35.80;;;;;;5023271;28;20204;-47
2023/02/07 09:10:18;;;;;;;2.17;0.90;;;29.00;35.90;;;;;;5034283;28;20228;-48
2023/02/07 09:12:49;;;;;;;1.27;0.70;;;29.00;35.90;;;;;;5034117;28;20204;-46
2023/02/07 09:15:20;;;;;;;1.75;0.77;;;29.00;36.00;;;;;;5034185;28;20200;-46
2023/02/07 09:17:50;;;;;;;1.55;0.82;;;29.00;36.10;;;;;;5034124;28;20664;-50
2023/02/07 09:20:21;;;;;;;1.95;0.80;;;28.90;36.10;;;;;;5033957;28;20222;-51
2023/02/07 09:25:42;;;;;;;1.20;0.70;;;28.90;36.10;;;;;;5042734;22;20180;-56
2023/02/07 09:28:13;;;;;;;0.90;0.70;;;28.90;36.20;;;;;;4995380;28;20206;-54
2023/02/07 09:30:44;;;;;;;1.58;0.77;;;28.90;36.20;;;;;;5013453;28;20603;-56
2023/02/07 09:33:16;;;;;;;0.45;0.40;;;28.90;36.30;;;;;;5013415;28;20199;-56
2023/02/07 09:35:48;;;;;;;1.40;0.60;;;28.90;36.30;;;;;;5013351;28;20247;-57
2023/02/07 09:38:21;;;;;;;0.85;0.52;;;28.90;36.40;;;;;;5013298;28;20208;-56
2023/02/07 09:40:54;;;;;;;1.35;0.60;;;28.80;36.40;;;;;;5013574;28;20219;-55
2023/02/07 09:43:36;;;;;;;1.27;0.80;;;28.80;36.40;;;;;;5012274;28;20201;-55
2023/02/07 09:46:12;;;;;;;1.65;0.82;;;28.80;36.40;;;;;;5013581;28;20211;-56
2023/02/07 09:48:49;;;;;;;1.10;0.60;;;28.80;36.40;;;;;;5013697;28;20571;-55
2023/02/07 09:51:22;;;;;;;1.08;0.60;;;28.80;36.50;;;;;;5013786;28;20315;-56
2023/02/07 09:53:56;;;;;;;1.27;0.60;;;28.80;36.60;;;;;;5013591;28;20201;-55
2023/02/07 09:56:31;;;;;;;1.45;0.70;;;28.70;36.60;;;;;;5013711;28;20553;-55
2023/02/07 09:59:06;;;;;;;1.63;0.82;;;28.70;36.60;;;;;;5012893;28;20872;-56
2023/02/07 10:01:41;;;;;;;2.28;0.98;;;28.70;36.70;;;;;;5013011;28;20258;-53
2023/02/07 10:04:31;;;;;;;1.17;0.77;;;28.70;36.80;;;;;;5012649;28;20193;-54
2023/02/07 10:07:06;;;;;;;1.15;0.60;;;28.70;36.80;;;;;;5013221;28;20759;-55
2023/02/07 10:09:41;;;;;;;1.05;0.65;;;28.70;36.90;;;;;;5013334;28;20224;-56
2023/02/07 10:12:27;;;;;;;2.17;0.75;;;28.70;37.00;;;;;;5013094;28;20653;-54
2023/02/07 10:15:16;;;;;;;1.00;0.75;;;28.60;37.00;;;;;;5012730;28;20220;-56
2023/02/07 10:18:04;;;;;;;2.10;1.00;;;28.60;37.10;;;;;;5012754;28;20203;-52
2023/02/07 10:20:42;;;;;;;2.28;0.75;;;28.60;37.10;;;;;;5012741;28;20725;-56
2023/02/07 10:23:35;;;;;;;1.95;0.80;;;28.50;37.10;;;;;;5012921;28;20192;-55
2023/02/07 10:26:13;;;;;;;1.92;1.00;;;28.50;37.10;;;;;;5012991;28;20205;-56
2023/02/07 10:29:16;;;;;;;2.55;0.80;;;28.50;37.20;;;;;;5009741;28;20235;-54
2023/02/07 10:31:49;;;;;;;1.80;0.85;;;28.40;37.20;;;;;;5012381;28;20602;-55
2023/02/07 10:34:23;;;;;;;2.80;1.05;;;28.50;38.00;;;;;;5012490;28;20200;-56
2023/02/07 10:36:58;;;;;;;1.27;0.80;;;28.40;37.40;;;;;;5012448;28;20204;-56
2023/02/07 10:39:34;;;;;;;2.30;0.98;;;28.40;37.50;;;;;;5010625;28;20242;-57
2023/02/07 10:42:05;;;;;;;2.13;0.95;;;28.40;37.60;;;;;;5012563;28;20228;-57
2023/02/07 10:44:38;;;;;;;2.72;1.15;;;28.40;37.60;;;;;;5012744;28;20205;-56
2023/02/07 10:47:14;;;;;;;2.72;0.90;;;28.30;37.70;;;;;;5012280;28;20644;-55
2023/02/07 10:49:48;;;;;;;3.03;1.33;;;28.30;37.70;;;;;;5011858;28;20220;-57
2023/02/07 10:52:32;;;;;;;1.65;0.90;;;28.30;38.40;;;;;;5012200;28;20674;-57
2023/02/07 10:55:05;;;;;;;2.30;0.90;;;28.30;37.80;;;;;;5012310;28;20192;-58
2023/02/07 10:57:35;;;;;;;2.08;0.90;;;28.30;37.90;;;;;;5012409;28;20611;-56
2023/02/07 11:00:18;;;;;;;1.60;0.80;;;28.30;37.90;;;;;;5012253;28;20217;-55
2023/02/07 11:02:54;;;;;;;2.33;0.98;;;28.20;38.00;;;;;;5011953;28;20659;-56
2023/02/07 11:05:42;;;;;;;1.95;1.20;;;28.20;38.00;;;;;;5011980;28;20211;-57
2023/02/07 11:08:23;;;;;;;2.67;1.08;;;28.20;38.10;;;;;;5012418;28;20208;-55
2023/02/07 11:10:56;;;;;;;2.58;0.85;;;28.20;38.10;;;;;;5012241;28;20225;-57
2023/02/07 11:13:27;;;;;;;1.75;1.05;;;28.20;38.10;;;;;;5012156;28;20197;-56
2023/02/07 11:16:03;;;;;;;2.80;1.25;;;28.10;38.10;;;;;;5012031;28;20197;-57
2023/02/07 11:18:43;;;;;;;2.65;1.08;;;28.10;38.20;;;;;;5011368;28;20216;-56
2023/02/07 11:21:28;;;;;;;3.22;1.10;;;28.10;38.30;;;;;;5011465;28;20656;-56
2023/02/07 11:24:02;;;;;;;4.15;1.25;;;28.00;38.30;;;;;;5012134;28;20197;-56
2023/02/07 11:26:34;;;;;;;2.47;1.00;;;28.00;38.40;;;;;;5012443;28;20314;-58
2023/02/07 11:29:18;;;;;;;2.90;1.10;;;28.00;38.50;;;;;;5011179;28;20217;-56
2023/02/07 11:31:53;;;;;;;2.53;1.27;;;28.00;38.50;;;;;;5012120;28;20236;-56
2023/02/07 11:34:44;;;;;;;2.33;1.10;;;28.00;38.50;;;;;;5012133;28;20192;-54
2023/02/07 11:37:34;;;;;;;2.35;0.90;;;27.90;38.60;;;;;;5011439;28;20201;-55
2023/02/07 11:40:25;;;;;;;2.35;1.20;;;27.90;38.60;;;;;;5000010;28;20222;-55
2023/02/07 11:43:03;;;;;;;2.35;1.00;;;27.90;38.70;;;;;;4992459;28;20654;-57
2023/02/07 11:45:35;;;;;;;3.25;1.13;;;27.90;38.70;;;;;;4992309;28;20605;-56
2023/02/07 11:48:09;;;;;;;2.30;1.05;;;27.90;38.70;;;;;;4991986;28;20251;-55
2023/02/07 11:50:42;;;;;;;2.40;1.27;;;27.80;38.70;;;;;;4991776;28;20565;-55
2023/02/07 11:53:23;;;;;;;3.88;1.08;;;27.80;38.80;;;;;;4991682;28;20204;-55
2023/02/07 11:55:57;;;;;;;2.72;1.00;;;27.80;38.80;;;;;;4991811;28;20198;-55
2023/02/07 11:58:34;;;;;;;2.28;1.00;;;27.70;38.80;;;;;;4991905;28;20256;-55
2023/02/07 12:01:06;;;;;;;2.85;1.00;;;27.70;38.90;;;;;;4991876;28;20206;-56
2023/02/07 12:03:45;;;;;;;2.33;1.20;;;27.70;39.00;;;;;;4991602;28;20197;-55
2023/02/07 12:06:21;;;;;;;3.17;1.05;;;27.70;39.00;;;;;;4994331;28;20453;-56
2023/02/07 12:08:53;;;;;;;2.40;1.17;;;27.70;39.00;;;;;;5013061;28;20251;-55
2023/02/07 12:11:28;;;;;;;2.55;1.08;;;27.60;39.00;;;;;;5014960;28;20727;-56
2023/02/07 12:14:04;;;;;;;2.45;1.40;;;27.60;39.10;;;;;;5014808;28;20232;-57
2023/02/07 12:16:40;;;;;;;3.72;1.23;;;27.60;39.10;;;;;;5015220;28;20668;-56
2023/02/07 12:19:18;;;;;;;2.42;1.00;;;27.60;39.20;;;;;;5015245;28;20220;-54
2023/02/07 12:21:58;;;;;;;2.88;1.20;;;27.60;39.20;;;;;;5015337;28;20204;-56
2023/02/07 12:24:35;;;;;;;2.50;1.02;;;27.50;39.20;;;;;;5015334;28;20192;-57
2023/02/07 12:27:13;;;;;;;3.60;1.38;;;27.50;39.20;;;;;;5015030;28;20219;-56
2023/02/07 12:29:58;;;;;;;4.60;1.48;;;27.50;39.30;;;;;;5014761;28;20623;-57
2023/02/07 12:32:39;;;;;;;2.05;1.10;;;27.50;39.40;;;;;;5012218;28;20263;-56
2023/02/07 12:35:24;;;;;;;3.45;1.40;;;27.40;39.40;;;;;;5015244;28;20197;-56
2023/02/07 12:38:02;;;;;;;3.25;1.20;;;27.40;39.40;;;;;;5014890;28;20250;-58
2023/02/07 12:40:37;;;;;;;3.58;1.23;;;27.40;39.40;;;;;;5011744;28;20201;-56
2023/02/07 12:43:14;;;;;;;2.72;1.17;;;27.40;39.50;;;;;;5014672;28;20203;-56
2023/02/07 12:46:04;;;;;;;2.90;1.00;;;27.40;39.60;;;;;;5015428;28;20230;-56
2023/02/07 12:48:50;;;;;;;3.28;1.15;;;27.30;39.60;;;;;;5014772;28;20224;-56
2023/02/07 12:51:29;;;;;;;2.28;1.13;;;27.30;39.60;;;;;;5014495;28;20232;-55
2023/02/07 12:54:14;;;;;;;2.80;1.30;;;27.30;39.60;;;;;;5014596;28;20200;-56
2023/02/07 12:56:53;;;;;;;2.47;1.13;;;27.30;39.70;;;;;;5014337;28;20227;-55
2023/02/07 12:59:32;;;;;;;3.40;1.20;;;27.20;39.70;;;;;;5013874;28;20216;-54
2023/02/07 13:02:23;;;;;;;2.47;1.25;;;27.20;39.70;;;;;;5014563;28;20678;-56
2023/02/07 13:05:21;;;;;;;1.75;1.00;;;27.20;39.70;;;;;;5014655;28;20197;-55
2023/02/07 13:08:02;;;;;;;2.80;1.33;;;27.20;39.80;;;;;;4998870;28;20581;-59
2023/02/07 13:10:41;;;;;;;3.28;1.30;;;27.10;39.70;;;;;;5014012;28;20225;-56
2023/02/07 13:13:20;;;;;;;1.65;0.90;;;27.10;39.80;;;;;;5013792;28;20285;-56
2023/02/07 13:15:57;;;;;;;2.92;1.30;;;27.10;39.80;;;;;;5013901;28;20201;-56
2023/02/07 13:18:38;;;;;;;1.80;1.00;;;27.10;39.90;;;;;;5013039;28;20212;-57
2023/02/07 13:21:18;;;;;;;2.22;1.20;;;27.00;39.90;;;;;;5013118;28;20251;-56
2023/02/07 13:23:51;;;;;;;3.08;1.10;;;27.00;39.90;;;;;;5013629;28;20192;-58
2023/02/07 13:26:25;;;;;;;2.25;0.93;;;27.00;39.90;;;;;;5014341;28;20213;-56